Mechanicsville, Maryland
Current Conditions -  °F | °C
As of 7:57 AM on Saturday 22 Nov 2014 (Local Time) from K2W6 Reporting Station
Clear Clear  
Wind Chill: 27°   Ceiling: Unl
Heat Index: 27°   Visibility: 10mi
Dew Point: 21°   Wind: 0mph
Humidity: 80%   Direction: NA
Pressure: 30.55"   Gusts: NA
Location:  38.44°N, 76.74°W
Report Text: K2W6 221257Z AUTO 00000KT 10SM CLR M03/M06 A3055 RMK AO1
Loading
Personal Weather Stations






























Interactive Weather Map New forecast layout! Learn more

10-Day Weather Forecast

Advertisements
Track Severe Weather on mobile